createdAt,value
2023-02-24T00:00:53.482Z,79.59
2023-02-24T00:03:58.173Z,80.08
2023-02-24T00:07:01.655Z,80.81
2023-02-24T00:10:04.729Z,81.47
2023-02-24T00:13:07.723Z,81.30
2023-02-24T00:16:10.391Z,81.83
2023-02-24T00:19:16.517Z,82.22
2023-02-24T00:22:20.591Z,82.39
2023-02-24T00:25:23.204Z,82.74
2023-02-24T00:28:26.165Z,81.00
2023-02-24T00:31:31.429Z,81.61
2023-02-24T00:34:36.937Z,82.50
2023-02-24T00:37:39.545Z,82.82
2023-02-24T00:40:45.490Z,83.33
2023-02-24T00:43:49.530Z,83.79
2023-02-24T00:46:52.527Z,82.84
2023-02-24T00:49:55.045Z,82.88
2023-02-24T00:52:57.671Z,82.96
2023-02-24T00:56:01.220Z,83.52
2023-02-24T00:59:03.907Z,82.43
2023-02-24T01:02:08.335Z,82.36
2023-02-24T01:05:12.333Z,83.16
2023-02-24T01:08:21.649Z,83.14
2023-02-24T01:11:47.812Z,83.42
2023-02-24T01:14:52.972Z,85.04
2023-02-24T01:17:55.793Z,83.49
2023-02-24T01:20:59.073Z,84.33
2023-02-24T01:24:01.712Z,85.45
2023-02-24T01:27:04.891Z,86.86
2023-02-24T01:30:16.530Z,85.77
2023-02-24T01:33:19.999Z,86.41
2023-02-24T01:36:26.122Z,86.81
2023-02-24T01:39:30.291Z,87.51
2023-02-24T01:42:33.088Z,88.87
2023-02-24T01:45:40.380Z,89.72
2023-02-24T01:48:42.918Z,89.88
2023-02-24T01:51:51.734Z,87.31
2023-02-24T01:54:55.519Z,86.59
2023-02-24T01:57:59.694Z,87.14
2023-02-24T02:01:08.781Z,87.40
2023-02-24T02:04:23.403Z,89.32
2023-02-24T02:07:28.428Z,86.79
2023-02-24T02:10:32.148Z,88.65
2023-02-24T02:13:43.413Z,87.40
2023-02-24T02:17:08.206Z,86.51
2023-02-24T02:20:25.815Z,89.88
2023-02-24T02:23:47.013Z,90.94
2023-02-24T02:27:11.644Z,92.50
2023-02-24T02:30:47.295Z,95.78
2023-02-24T02:34:05.703Z,98.03
2023-02-24T02:37:08.278Z,99.33
2023-02-24T02:40:20.148Z,99.66
2023-02-24T02:43:33.342Z,99.83
2023-02-24T02:46:41.591Z,98.52
2023-02-24T02:49:52.761Z,99.06
2023-02-24T02:53:00.653Z,96.77
2023-02-24T02:56:07.004Z,93.94
2023-02-24T02:59:12.913Z,91.97
2023-02-24T03:02:23.916Z,90.42
2023-02-24T03:05:37.352Z,89.93
2023-02-24T03:08:41.766Z,89.05
2023-02-24T03:11:53.295Z,89.25
2023-02-24T03:14:59.601Z,89.67
2023-02-24T03:18:11.589Z,88.70
2023-02-24T03:21:29.056Z,89.12
2023-02-24T03:24:39.129Z,92.57
2023-02-24T03:27:51.082Z,94.87
2023-02-24T03:31:00.448Z,95.28
2023-02-24T03:34:09.151Z,97.68
2023-02-24T03:37:11.871Z,97.79
2023-02-24T03:40:15.401Z,97.67
2023-02-24T03:43:19.951Z,98.69
2023-02-24T03:46:22.861Z,95.37
2023-02-24T03:49:25.593Z,92.67
2023-02-24T03:52:47.610Z,91.53
2023-02-24T03:56:33.466Z,92.40
2023-02-24T03:59:54.386Z,92.17
2023-02-24T04:03:06.032Z,91.31
2023-02-24T04:06:14.507Z,90.55
2023-02-24T04:09:17.893Z,90.12
2023-02-24T04:12:34.273Z,91.69
2023-02-24T04:15:47.938Z,91.01
2023-02-24T04:18:51.801Z,90.87
2023-02-24T04:21:55.445Z,91.78
2023-02-24T04:25:02.137Z,92.62
2023-02-24T04:28:08.222Z,93.54
2023-02-24T04:31:18.124Z,94.53
2023-02-24T04:34:20.857Z,91.88
2023-02-24T04:37:25.187Z,90.39
2023-02-24T04:40:28.028Z,89.99
2023-02-24T04:43:30.674Z,90.32
2023-02-24T04:46:33.740Z,90.49
2023-02-24T04:49:36.486Z,90.03
2023-02-24T04:52:39.177Z,90.12
2023-02-24T04:55:48.910Z,89.66
2023-02-24T04:58:51.786Z,89.48
2023-02-24T05:01:55.600Z,91.19
2023-02-24T05:04:59.679Z,90.31
2023-02-24T05:08:10.231Z,91.49
2023-02-24T05:11:18.583Z,90.98
2023-02-24T05:14:21.508Z,90.21
2023-02-24T05:17:24.654Z,88.74
2023-02-24T05:20:46.856Z,90.17
2023-02-24T05:23:52.005Z,89.58
2023-02-24T05:26:58.770Z,90.86
2023-02-24T05:30:01.770Z,91.25
2023-02-24T05:33:04.952Z,90.74
2023-02-24T05:36:10.130Z,90.65
2023-02-24T05:39:19.342Z,89.00
2023-02-24T05:42:22.046Z,90.68
2023-02-24T05:45:30.524Z,91.23
2023-02-24T05:48:35.567Z,89.96
2023-02-24T05:51:39.403Z,91.48
2023-02-24T05:54:44.183Z,90.68
2023-02-24T05:57:46.968Z,90.40
2023-02-24T06:00:50.461Z,89.91
2023-02-24T06:03:54.737Z,90.68
2023-02-24T06:06:58.477Z,90.36
2023-02-24T06:10:02.070Z,90.48
2023-02-24T06:13:07.152Z,89.23
2023-02-24T06:16:13.059Z,90.89
2023-02-24T06:19:17.538Z,89.84
2023-02-24T06:22:23.210Z,93.67
2023-02-24T06:25:26.730Z,95.70
2023-02-24T06:28:29.338Z,96.03
2023-02-24T06:31:32.172Z,95.15
2023-02-24T06:34:36.268Z,95.15
2023-02-24T06:37:40.142Z,93.07
2023-02-24T06:40:42.929Z,91.69
2023-02-24T06:43:46.470Z,91.62
2023-02-24T06:46:49.073Z,90.09
2023-02-24T06:49:52.017Z,91.48
2023-02-24T06:53:01.108Z,91.52
2023-02-24T06:56:15.156Z,92.51
2023-02-24T06:59:38.665Z,91.46
2023-02-24T07:02:41.296Z,91.88
2023-02-24T07:05:50.526Z,91.32
2023-02-24T07:08:53.465Z,92.34
2023-02-24T07:11:57.002Z,92.26
2023-02-24T07:14:59.616Z,91.40
2023-02-24T07:18:03.384Z,90.40
2023-02-24T07:21:16.570Z,89.41
2023-02-24T07:24:25.374Z,89.98
2023-02-24T07:27:27.949Z,89.56
2023-02-24T07:30:33.619Z,89.93
2023-02-24T07:33:39.115Z,93.07
2023-02-24T07:36:49.509Z,93.84
2023-02-24T07:39:52.580Z,92.81
2023-02-24T07:42:56.372Z,93.93
2023-02-24T07:46:06.135Z,96.52
2023-02-24T07:49:12.972Z,96.24
2023-02-24T07:52:16.306Z,97.34
2023-02-24T07:55:18.924Z,95.98
2023-02-24T07:58:23.620Z,96.49
2023-02-24T08:01:32.550Z,94.98
2023-02-24T08:04:36.617Z,93.28
2023-02-24T08:07:40.377Z,91.98
2023-02-24T08:10:43.138Z,93.23
2023-02-24T08:13:45.749Z,94.45
2023-02-24T08:16:50.055Z,95.33
2023-02-24T08:20:24.001Z,95.76
2023-02-24T08:23:26.728Z,96.29
2023-02-24T08:26:32.202Z,95.88
2023-02-24T08:29:40.516Z,96.61
2023-02-24T08:32:44.060Z,96.05
2023-02-24T08:35:52.609Z,95.33
2023-02-24T08:38:59.561Z,94.66
2023-02-24T08:42:03.156Z,92.53
2023-02-24T08:45:06.389Z,95.13
2023-02-24T08:48:18.508Z,93.30
2023-02-24T08:51:29.129Z,95.01
2023-02-24T08:54:32.415Z,93.07
2023-02-24T08:57:36.130Z,94.90
2023-02-24T09:00:50.936Z,98.35
2023-02-24T09:03:56.811Z,96.63
2023-02-24T09:07:11.352Z,95.59
2023-02-24T09:10:18.231Z,94.11
2023-02-24T09:13:20.964Z,95.33
2023-02-24T09:16:24.309Z,94.26
2023-02-24T09:19:40.661Z,96.37
2023-02-24T09:22:57.518Z,99.55
2023-02-24T09:26:11.430Z,99.19
2023-02-24T09:29:32.779Z,98.11
2023-02-24T09:32:35.475Z,97.20
2023-02-24T09:35:42.096Z,96.63
2023-02-24T09:39:02.390Z,98.96
2023-02-24T09:42:08.018Z,100.00
2023-02-24T09:45:33.324Z,98.76
2023-02-24T09:48:44.128Z,98.31
2023-02-24T09:51:53.563Z,96.72
2023-02-24T09:55:25.415Z,98.37
2023-02-24T09:58:43.393Z,100.00
2023-02-24T10:01:52.848Z,100.00
2023-02-24T10:05:07.661Z,99.89
2023-02-24T10:08:18.259Z,99.97
2023-02-24T10:11:33.227Z,98.13
2023-02-24T10:14:44.706Z,98.70
2023-02-24T10:17:55.732Z,99.08
2023-02-24T10:21:19.032Z,97.84
2023-02-24T10:24:29.760Z,94.87
2023-02-24T10:27:58.613Z,95.53
2023-02-24T10:31:25.814Z,95.57
2023-02-24T10:34:34.753Z,95.25
2023-02-24T10:37:37.256Z,96.73
2023-02-24T10:40:57.061Z,96.38
2023-02-24T10:44:00.002Z,97.23
2023-02-24T10:47:12.010Z,96.76
2023-02-24T10:50:34.769Z,96.62
2023-02-24T10:53:37.977Z,95.04
2023-02-24T10:56:44.775Z,96.90
2023-02-24T11:00:06.244Z,96.23
2023-02-24T11:03:21.983Z,94.04
2023-02-24T11:06:41.722Z,94.93
2023-02-24T11:09:52.612Z,96.81
2023-02-24T11:13:14.894Z,98.55
2023-02-24T11:16:37.121Z,98.54
2023-02-24T11:19:50.984Z,99.56
2023-02-24T11:22:56.060Z,99.75
2023-02-24T11:26:18.568Z,99.89
2023-02-24T11:29:32.222Z,100.00
2023-02-24T11:33:11.178Z,100.00
2023-02-24T11:36:43.631Z,100.00
2023-02-24T11:39:50.687Z,100.00
2023-02-24T11:42:59.034Z,100.00
2023-02-24T11:46:08.494Z,100.00
2023-02-24T11:49:48.978Z,100.00
2023-02-24T11:52:52.865Z,100.00
2023-02-24T11:56:21.577Z,100.00
2023-02-24T11:59:34.056Z,100.00
2023-02-24T12:02:59.737Z,100.00
2023-02-24T12:06:12.804Z,100.00
2023-02-24T12:09:21.038Z,99.56
2023-02-24T12:13:14.680Z,98.35
2023-02-24T12:16:29.049Z,99.53
2023-02-24T12:19:52.054Z,99.72
2023-02-24T12:23:03.216Z,100.00
2023-02-24T12:26:09.351Z,100.00
2023-02-24T12:29:46.257Z,98.67
2023-02-24T12:33:19.609Z,99.29
2023-02-24T12:36:30.903Z,97.99
2023-02-24T12:39:42.455Z,98.50
2023-02-24T12:43:07.039Z,99.71
2023-02-24T12:46:19.508Z,99.83
2023-02-24T12:49:29.968Z,100.00
2023-02-24T12:52:35.793Z,100.00
2023-02-24T12:55:41.793Z,100.00
2023-02-24T12:58:46.871Z,100.00
2023-02-24T13:02:01.997Z,100.00
2023-02-24T13:05:38.310Z,100.00
2023-02-24T13:08:57.845Z,100.00
2023-02-24T13:12:13.189Z,100.00
2023-02-24T13:15:34.084Z,100.00
2023-02-24T13:18:40.242Z,100.00
2023-02-24T13:21:43.086Z,100.00
2023-02-24T13:24:54.873Z,100.00
2023-02-24T13:28:03.196Z,100.00
2023-02-24T13:31:09.344Z,100.00
2023-02-24T13:34:16.906Z,100.00
2023-02-24T13:37:39.979Z,100.00
2023-02-24T13:40:42.967Z,100.00
2023-02-24T13:44:19.870Z,100.00
2023-02-24T13:47:29.696Z,100.00
2023-02-24T13:50:57.613Z,100.00
2023-02-24T13:54:37.723Z,100.00
2023-02-24T13:58:11.252Z,100.00
2023-02-24T14:01:16.612Z,100.00
2023-02-24T14:04:24.973Z,100.00
2023-02-24T14:07:35.265Z,100.00
2023-02-24T14:10:39.186Z,100.00
2023-02-24T14:13:46.111Z,100.00
2023-02-24T14:16:51.000Z,100.00
2023-02-24T14:19:54.709Z,100.00
2023-02-24T14:23:01.802Z,100.00
2023-02-24T14:26:13.476Z,100.00
2023-02-24T14:29:23.627Z,99.39
2023-02-24T14:32:29.264Z,97.92
2023-02-24T14:35:58.365Z,98.11
2023-02-24T14:39:20.787Z,98.05
2023-02-24T14:42:23.892Z,98.17
2023-02-24T14:45:29.335Z,99.08
2023-02-24T14:48:32.151Z,98.68
2023-02-24T14:51:36.139Z,99.82
2023-02-24T14:54:43.426Z,99.63
2023-02-24T14:58:01.515Z,99.03
2023-02-24T15:01:07.436Z,97.71
2023-02-24T15:04:33.660Z,98.01
2023-02-24T15:07:36.850Z,97.29
2023-02-24T15:10:39.470Z,97.31
2023-02-24T15:13:54.554Z,97.53
2023-02-24T15:17:00.761Z,98.62
2023-02-24T15:20:05.282Z,98.09
2023-02-24T15:23:27.049Z,98.61
2023-02-24T15:26:32.105Z,98.56
2023-02-24T15:29:35.615Z,98.79
2023-02-24T15:32:39.371Z,99.38
2023-02-24T15:35:49.253Z,99.44
2023-02-24T15:38:54.318Z,98.99
2023-02-24T15:42:20.019Z,100.00
2023-02-24T15:45:23.046Z,100.00
2023-02-24T15:48:31.359Z,100.00
2023-02-24T15:51:45.634Z,100.00
2023-02-24T15:54:48.488Z,100.00
2023-02-24T15:58:03.160Z,100.00
2023-02-24T16:01:05.912Z,100.00
2023-02-24T16:04:11.637Z,99.15
2023-02-24T16:07:32.778Z,97.86
2023-02-24T16:10:36.547Z,97.89
2023-02-24T16:13:39.769Z,97.43
2023-02-24T16:16:42.693Z,97.32
2023-02-24T16:19:45.449Z,98.30
2023-02-24T16:22:48.334Z,97.93
2023-02-24T16:25:53.979Z,95.86
2023-02-24T16:28:58.248Z,99.74
2023-02-24T16:32:01.341Z,100.00
2023-02-24T16:35:04.675Z,100.00
2023-02-24T16:38:07.694Z,100.00
2023-02-24T16:41:13.711Z,100.00
2023-02-24T16:44:19.693Z,100.00
2023-02-24T16:47:24.043Z,100.00
2023-02-24T16:50:31.564Z,100.00
2023-02-24T16:53:34.904Z,100.00
2023-02-24T16:56:38.382Z,100.00
2023-02-24T16:59:41.301Z,100.00
2023-02-24T17:02:45.393Z,100.00
2023-02-24T17:05:48.495Z,100.00
2023-02-24T17:08:51.500Z,100.00
2023-02-24T17:11:54.806Z,100.00
2023-02-24T17:14:59.633Z,100.00
2023-02-24T17:18:02.583Z,100.00
2023-02-24T17:21:05.753Z,100.00
2023-02-24T17:24:14.458Z,100.00
2023-02-24T17:27:17.270Z,100.00
2023-02-24T17:30:22.824Z,100.00
2023-02-24T17:33:25.608Z,100.00
2023-02-24T17:36:29.513Z,100.00
2023-02-24T17:39:33.073Z,100.00
2023-02-24T17:42:36.044Z,100.00
2023-02-24T17:45:43.518Z,100.00
2023-02-24T17:48:46.594Z,100.00
2023-02-24T17:51:49.342Z,100.00
2023-02-24T17:54:52.466Z,100.00
2023-02-24T17:57:57.159Z,100.00
2023-02-24T18:01:02.469Z,100.00
2023-02-24T18:04:05.278Z,100.00
2023-02-24T18:07:10.612Z,99.20
2023-02-24T18:10:13.846Z,99.40
2023-02-24T18:13:16.856Z,98.72
2023-02-24T18:16:19.924Z,98.26
2023-02-24T18:19:23.694Z,99.43
2023-02-24T18:22:29.432Z,99.75
2023-02-24T18:25:34.566Z,99.11
2023-02-24T18:28:38.370Z,98.94
2023-02-24T18:31:41.758Z,98.70
2023-02-24T18:34:44.928Z,97.95
2023-02-24T18:37:56.819Z,97.66
2023-02-24T18:41:05.234Z,97.27
2023-02-24T18:44:08.957Z,97.83
2023-02-24T18:47:12.273Z,98.42
2023-02-24T18:50:18.587Z,99.35
2023-02-24T18:53:22.994Z,99.66
2023-02-24T18:56:28.113Z,98.99
2023-02-24T18:59:31.816Z,98.40
2023-02-24T19:02:34.903Z,98.04
2023-02-24T19:05:39.009Z,97.42
2023-02-24T19:08:42.917Z,98.67
2023-02-24T19:11:46.266Z,99.32
2023-02-24T19:14:54.096Z,100.00
2023-02-24T19:17:57.657Z,100.00
2023-02-24T19:21:01.252Z,100.00
2023-02-24T19:24:09.240Z,100.00
2023-02-24T19:27:15.522Z,100.00
2023-02-24T19:30:19.297Z,100.00
2023-02-24T19:33:22.949Z,100.00
2023-02-24T19:36:25.968Z,100.00
2023-02-24T19:39:28.903Z,100.00
2023-02-24T19:42:32.528Z,100.00
2023-02-24T19:45:36.070Z,100.00
2023-02-24T19:48:39.568Z,100.00
2023-02-24T19:51:45.197Z,100.00
2023-02-24T19:54:49.607Z,100.00
2023-02-24T19:57:55.957Z,100.00
2023-02-24T20:01:10.372Z,100.00
2023-02-24T20:04:14.341Z,100.00
2023-02-24T20:07:18.386Z,100.00
2023-02-24T20:10:22.968Z,100.00
2023-02-24T20:13:27.113Z,100.00
2023-02-24T20:16:35.862Z,100.00
2023-02-24T20:19:39.806Z,100.00
2023-02-24T20:22:43.562Z,100.00
2023-02-24T20:25:56.656Z,100.00
2023-02-24T20:29:00.767Z,100.00
2023-02-24T20:32:04.734Z,100.00
2023-02-24T20:35:09.144Z,100.00
2023-02-24T20:38:12.624Z,99.67
2023-02-24T20:41:16.340Z,98.71
2023-02-24T20:44:19.780Z,96.85
2023-02-24T20:47:23.564Z,96.08
2023-02-24T20:50:27.390Z,95.87
2023-02-24T20:53:31.467Z,94.92
2023-02-24T20:56:36.707Z,95.78
2023-02-24T20:59:51.741Z,95.39
2023-02-24T21:03:01.600Z,95.76
2023-02-24T21:06:10.122Z,96.17
2023-02-24T21:09:15.481Z,95.94
2023-02-24T21:12:19.296Z,96.01
2023-02-24T21:15:22.612Z,95.15
2023-02-24T21:18:25.835Z,94.88
2023-02-24T21:21:29.611Z,94.14
2023-02-24T21:24:33.350Z,92.60
2023-02-24T21:27:38.480Z,93.00
2023-02-24T21:30:42.976Z,93.30
2023-02-24T21:33:51.171Z,92.43
2023-02-24T21:36:54.914Z,92.53
2023-02-24T21:39:57.906Z,92.01
2023-02-24T21:43:01.120Z,92.21
2023-02-24T21:46:06.016Z,91.81
2023-02-24T21:49:14.938Z,91.27
2023-02-24T21:52:18.533Z,90.83
2023-02-24T21:55:24.503Z,90.94
2023-02-24T21:58:27.184Z,100.00
2023-02-24T22:01:35.562Z,100.00
2023-02-24T22:04:38.634Z,100.00
2023-02-24T22:07:41.513Z,100.00
2023-02-24T22:10:44.547Z,100.00
2023-02-24T22:13:48.237Z,100.00
2023-02-24T22:16:51.217Z,100.00
2023-02-24T22:19:56.851Z,100.00
2023-02-24T22:22:59.585Z,100.00
2023-02-24T22:26:04.840Z,100.00
2023-02-24T22:29:08.272Z,100.00
2023-02-24T22:32:11.506Z,100.00
2023-02-24T22:35:14.302Z,100.00
2023-02-24T22:38:17.127Z,100.00
2023-02-24T22:41:22.013Z,100.00
2023-02-24T22:44:25.277Z,100.00
2023-02-24T22:47:28.029Z,100.00
2023-02-24T22:50:30.633Z,100.00
2023-02-24T22:53:39.842Z,100.00
2023-02-24T22:56:42.644Z,100.00
2023-02-24T22:59:45.556Z,100.00
2023-02-24T23:02:48.145Z,100.00
2023-02-24T23:06:01.487Z,100.00
2023-02-24T23:09:05.569Z,100.00
2023-02-24T23:12:11.444Z,100.00
2023-02-24T23:15:14.763Z,100.00
2023-02-24T23:18:17.694Z,100.00
2023-02-24T23:21:23.727Z,100.00
2023-02-24T23:24:26.287Z,98.68
2023-02-24T23:27:28.853Z,97.30
2023-02-24T23:30:32.033Z,97.50
2023-02-24T23:33:34.810Z,96.61
2023-02-24T23:36:39.728Z,96.59
2023-02-24T23:39:42.927Z,95.95
2023-02-24T23:42:46.545Z,95.59
2023-02-24T23:45:49.635Z,94.89
2023-02-24T23:48:53.536Z,95.15
2023-02-24T23:51:56.261Z,95.67
2023-02-24T23:54:58.904Z,96.05
2023-02-24T23:58:02.884Z,95.58
